createdAt,value
2022-12-18T00:00:08.928Z,20.27
2022-12-18T00:02:41.830Z,19.63
2022-12-18T00:05:10.233Z,19.17
2022-12-18T00:07:38.944Z,20.63
2022-12-18T00:10:08.235Z,19.07
2022-12-18T00:12:36.329Z,20.63
2022-12-18T00:15:04.913Z,18.77
2022-12-18T00:17:34.483Z,20.03
2022-12-18T00:20:02.508Z,19.97
2022-12-18T00:22:30.720Z,20.67
2022-12-18T00:24:58.901Z,20.53
2022-12-18T00:27:27.060Z,33.50
2022-12-18T00:29:55.096Z,21.53
2022-12-18T00:32:23.176Z,19.53
2022-12-18T00:34:52.691Z,22.70
2022-12-18T00:37:20.732Z,24.00
2022-12-18T00:39:52.665Z,17.57
2022-12-18T00:42:38.867Z,19.10
2022-12-18T00:45:12.702Z,18.00
2022-12-18T00:47:41.792Z,18.33
2022-12-18T00:50:12.358Z,17.47
2022-12-18T00:52:41.991Z,17.27
2022-12-18T00:55:10.342Z,16.93
2022-12-18T00:57:38.658Z,17.03
2022-12-18T01:00:11.037Z,17.10
2022-12-18T01:02:39.222Z,16.80
2022-12-18T01:05:11.738Z,18.47
2022-12-18T01:07:40.187Z,17.07
2022-12-18T01:10:10.036Z,17.40
2022-12-18T01:12:38.108Z,16.87
2022-12-18T01:15:08.566Z,17.50
2022-12-18T01:17:36.643Z,16.03
2022-12-18T01:20:06.180Z,17.47
2022-12-18T01:22:35.967Z,16.93
2022-12-18T01:25:05.410Z,16.70
2022-12-18T01:27:33.655Z,15.53
2022-12-18T01:30:01.856Z,16.63
2022-12-18T01:32:31.899Z,15.43
2022-12-18T01:34:59.946Z,16.93
2022-12-18T01:37:29.048Z,16.37
2022-12-18T01:39:58.718Z,16.13
2022-12-18T01:42:26.828Z,18.13
2022-12-18T01:45:06.380Z,15.90
2022-12-18T01:47:38.857Z,17.17
2022-12-18T01:50:10.885Z,15.60
2022-12-18T01:52:44.361Z,16.00
2022-12-18T01:55:16.488Z,15.50
2022-12-18T01:57:44.812Z,14.87
2022-12-18T02:00:17.557Z,14.53
2022-12-18T02:02:47.488Z,13.40
2022-12-18T02:05:19.689Z,14.17
2022-12-18T02:08:02.016Z,14.63
2022-12-18T02:10:41.340Z,13.27
2022-12-18T02:13:16.407Z,13.47
2022-12-18T02:15:51.820Z,14.40
2022-12-18T02:18:23.669Z,14.37
2022-12-18T02:20:56.258Z,13.63
2022-12-18T02:23:40.281Z,14.53
2022-12-18T02:26:17.646Z,13.27
2022-12-18T02:28:49.563Z,11.90
2022-12-18T02:31:23.094Z,14.20
2022-12-18T02:33:53.277Z,14.50
2022-12-18T02:36:24.153Z,13.90
2022-12-18T02:38:54.484Z,14.07
2022-12-18T02:41:28.483Z,13.63
2022-12-18T02:43:59.368Z,13.90
2022-12-18T02:46:35.046Z,14.43
2022-12-18T02:49:17.377Z,14.03
2022-12-18T02:51:54.650Z,13.60
2022-12-18T02:54:34.599Z,13.23
2022-12-18T02:57:14.329Z,13.23
2022-12-18T02:59:51.425Z,11.90
2022-12-18T03:02:25.171Z,13.97
2022-12-18T03:05:00.306Z,12.97
2022-12-18T03:07:35.501Z,12.27
2022-12-18T03:10:05.845Z,13.60
2022-12-18T03:12:40.413Z,13.43
2022-12-18T03:15:17.804Z,13.47
2022-12-18T03:17:54.571Z,12.33
2022-12-18T03:20:31.303Z,12.70
2022-12-18T03:23:05.703Z,12.93
2022-12-18T03:25:35.505Z,12.33
2022-12-18T03:28:09.529Z,13.80
2022-12-18T03:30:42.548Z,13.53
2022-12-18T03:33:18.784Z,13.60
2022-12-18T03:35:48.682Z,14.10
2022-12-18T03:38:19.223Z,13.47
2022-12-18T03:40:59.069Z,14.37
2022-12-18T03:43:39.295Z,12.97
2022-12-18T03:46:14.819Z,12.63
2022-12-18T03:48:54.799Z,12.00
2022-12-18T03:51:28.909Z,11.37
2022-12-18T03:54:01.403Z,11.80
2022-12-18T03:56:38.644Z,11.47
2022-12-18T03:59:12.037Z,12.63
2022-12-18T04:01:44.946Z,12.27
2022-12-18T04:04:16.593Z,13.97
2022-12-18T04:06:47.437Z,12.37
2022-12-18T04:09:16.592Z,12.13
2022-12-18T04:11:48.839Z,13.60
2022-12-18T04:14:19.641Z,12.20
2022-12-18T04:16:52.021Z,11.30
2022-12-18T04:19:24.890Z,12.77
2022-12-18T04:21:54.949Z,11.83
2022-12-18T04:24:23.067Z,11.20
2022-12-18T04:27:04.915Z,11.20
2022-12-18T04:29:42.078Z,12.67
2022-12-18T04:32:10.421Z,12.30
2022-12-18T04:34:39.606Z,12.57
2022-12-18T04:37:08.195Z,13.87
2022-12-18T04:39:36.746Z,14.03
2022-12-18T04:42:10.491Z,13.70
2022-12-18T04:44:38.682Z,12.20
2022-12-18T04:47:08.539Z,13.07
2022-12-18T04:49:36.643Z,13.43
2022-12-18T04:52:04.789Z,12.47
2022-12-18T04:54:35.846Z,12.13
2022-12-18T04:57:04.227Z,12.70
2022-12-18T04:59:32.424Z,13.20
2022-12-18T05:02:00.657Z,13.73
2022-12-18T05:04:30.076Z,13.17
2022-12-18T05:06:58.319Z,12.73
2022-12-18T05:09:26.486Z,14.27
2022-12-18T05:11:54.712Z,13.23
2022-12-18T05:14:22.930Z,12.57
2022-12-18T05:16:51.263Z,11.93
2022-12-18T05:19:19.567Z,11.97
2022-12-18T05:21:49.014Z,13.13
2022-12-18T05:24:17.442Z,13.13
2022-12-18T05:26:45.463Z,14.23
2022-12-18T05:29:13.602Z,14.57
2022-12-18T05:31:42.389Z,14.03
2022-12-18T05:34:11.795Z,13.97
2022-12-18T05:36:40.856Z,16.13
2022-12-18T05:39:10.656Z,16.87
2022-12-18T05:41:38.696Z,16.87
2022-12-18T05:44:06.951Z,17.00
2022-12-18T05:46:35.059Z,15.30
2022-12-18T05:49:03.376Z,16.70
2022-12-18T05:51:32.483Z,16.57
2022-12-18T05:54:00.583Z,16.53
2022-12-18T05:56:30.036Z,17.67
2022-12-18T05:58:58.066Z,16.67
2022-12-18T06:01:28.296Z,19.07
2022-12-18T06:03:57.022Z,18.93
2022-12-18T06:06:27.205Z,19.40
2022-12-18T06:08:56.231Z,21.43
2022-12-18T06:11:26.641Z,21.80
2022-12-18T06:13:59.164Z,22.37
2022-12-18T06:16:28.269Z,20.77
2022-12-18T06:18:58.355Z,20.60
2022-12-18T06:21:26.580Z,20.43
2022-12-18T06:23:54.706Z,20.33
2022-12-18T06:26:27.777Z,21.43
2022-12-18T06:28:57.850Z,20.63
2022-12-18T06:31:27.366Z,19.27
2022-12-18T06:33:55.512Z,19.97
2022-12-18T06:36:23.863Z,21.40
2022-12-18T06:38:52.138Z,19.33
2022-12-18T06:41:22.267Z,20.23
2022-12-18T06:43:50.419Z,20.97
2022-12-18T06:46:19.955Z,20.33
2022-12-18T06:48:50.864Z,20.37
2022-12-18T06:51:23.411Z,21.63
2022-12-18T06:53:51.891Z,26.50
2022-12-18T06:56:20.155Z,27.70
2022-12-18T06:58:48.311Z,24.67
2022-12-18T07:01:16.525Z,21.17
2022-12-18T07:03:46.244Z,20.17
2022-12-18T07:06:19.670Z,20.30
2022-12-18T07:08:48.317Z,20.43
2022-12-18T07:11:17.291Z,20.10
2022-12-18T07:13:46.239Z,21.77
2022-12-18T07:16:21.138Z,21.83
2022-12-18T07:18:53.852Z,21.57
2022-12-18T07:21:22.881Z,20.57
2022-12-18T07:23:50.924Z,20.93
2022-12-18T07:26:20.827Z,21.47
2022-12-18T07:28:49.698Z,19.20
2022-12-18T07:31:21.638Z,19.80
2022-12-18T07:33:50.581Z,20.67
2022-12-18T07:36:20.954Z,22.57
2022-12-18T07:38:50.055Z,20.70
2022-12-18T07:41:20.698Z,21.97
2022-12-18T07:43:49.435Z,21.73
2022-12-18T07:46:18.620Z,22.60
2022-12-18T07:48:49.772Z,22.60
2022-12-18T07:51:21.050Z,23.97
2022-12-18T07:53:52.103Z,22.03
2022-12-18T07:56:27.672Z,21.37
2022-12-18T07:58:57.258Z,22.93
2022-12-18T08:01:25.976Z,21.17
2022-12-18T08:03:54.335Z,21.50
2022-12-18T08:06:24.751Z,22.43
2022-12-18T08:08:54.590Z,22.93
2022-12-18T08:11:23.655Z,21.80
2022-12-18T08:13:51.733Z,22.27
2022-12-18T08:16:20.715Z,21.67
2022-12-18T08:18:49.770Z,20.00
2022-12-18T08:21:22.029Z,19.00
2022-12-18T08:23:52.550Z,19.33
2022-12-18T08:26:21.312Z,21.13
2022-12-18T08:28:50.388Z,20.20
2022-12-18T08:31:19.827Z,20.90
2022-12-18T08:33:51.558Z,23.97
2022-12-18T08:36:20.235Z,21.67
2022-12-18T08:38:48.643Z,22.50
2022-12-18T08:41:19.356Z,20.23
2022-12-18T08:44:05.285Z,22.00
2022-12-18T08:46:38.803Z,19.53
2022-12-18T08:49:08.196Z,19.33
2022-12-18T08:51:36.854Z,19.83
2022-12-18T08:54:06.398Z,19.87
2022-12-18T08:56:36.113Z,18.97
2022-12-18T08:59:05.403Z,18.47
2022-12-18T09:01:33.775Z,19.50
2022-12-18T09:04:03.562Z,19.10
2022-12-18T09:06:32.852Z,18.57
2022-12-18T09:09:00.865Z,19.23
2022-12-18T09:11:30.610Z,17.07
2022-12-18T09:14:01.782Z,17.80
2022-12-18T09:16:32.601Z,18.63
2022-12-18T09:19:01.274Z,16.63
2022-12-18T09:21:31.265Z,18.47
2022-12-18T09:24:01.116Z,18.43
2022-12-18T09:26:29.138Z,18.93
2022-12-18T09:28:57.202Z,19.07
2022-12-18T09:31:26.848Z,19.83
2022-12-18T09:33:56.491Z,19.60
2022-12-18T09:36:24.553Z,18.87
2022-12-18T09:38:52.592Z,20.07
2022-12-18T09:41:41.146Z,20.23
2022-12-18T09:44:20.449Z,20.30
2022-12-18T09:46:57.927Z,20.93
2022-12-18T09:49:30.943Z,20.40
2022-12-18T09:52:03.930Z,21.13
2022-12-18T09:54:35.638Z,20.23
2022-12-18T09:57:03.885Z,20.03
2022-12-18T09:59:36.285Z,19.10
2022-12-18T10:02:16.901Z,19.43
2022-12-18T10:04:45.494Z,18.87
2022-12-18T10:07:20.360Z,19.73
2022-12-18T10:09:55.826Z,18.83
2022-12-18T10:12:29.729Z,24.07
2022-12-18T10:15:03.931Z,19.47
2022-12-18T10:17:41.710Z,19.90
2022-12-18T10:20:15.766Z,18.57
2022-12-18T10:22:54.110Z,19.03
2022-12-18T10:25:27.309Z,20.30
2022-12-18T10:27:59.496Z,21.13
2022-12-18T10:30:28.210Z,20.83
2022-12-18T10:33:02.824Z,20.57
2022-12-18T10:35:31.976Z,22.63
2022-12-18T10:38:07.285Z,21.40
2022-12-18T10:40:50.524Z,20.37
2022-12-18T10:43:23.946Z,20.23
2022-12-18T10:46:06.358Z,20.40
2022-12-18T10:48:38.128Z,21.37
2022-12-18T10:51:13.116Z,19.87
2022-12-18T10:53:44.661Z,19.60
2022-12-18T10:56:12.990Z,21.03
2022-12-18T10:58:41.913Z,20.20
2022-12-18T11:01:13.058Z,17.47
2022-12-18T11:03:45.784Z,19.27
2022-12-18T11:06:15.861Z,20.00
2022-12-18T11:08:46.465Z,21.20
2022-12-18T11:11:22.842Z,19.27
2022-12-18T11:14:03.110Z,20.83
2022-12-18T11:16:35.685Z,20.43
2022-12-18T11:19:32.467Z,19.40
2022-12-18T11:22:01.520Z,20.30
2022-12-18T11:27:50.639Z,19.70
2022-12-18T11:30:24.617Z,20.27
2022-12-18T11:32:55.255Z,19.43
2022-12-18T11:35:35.231Z,20.97
2022-12-18T11:38:12.803Z,20.07
2022-12-18T11:40:44.133Z,19.93
2022-12-18T11:43:16.938Z,22.07
2022-12-18T11:45:53.088Z,23.03
2022-12-18T11:48:25.841Z,20.03
2022-12-18T11:50:57.363Z,21.80
2022-12-18T11:53:27.185Z,20.50
2022-12-18T11:56:05.992Z,19.40
2022-12-18T11:58:49.160Z,20.30
2022-12-18T12:01:40.361Z,21.40
2022-12-18T12:04:32.410Z,19.60
2022-12-18T12:07:13.244Z,20.47
2022-12-18T12:09:51.977Z,24.07
2022-12-18T12:12:48.613Z,20.80
2022-12-18T12:15:27.188Z,21.53
2022-12-18T12:18:06.866Z,22.57
2022-12-18T12:20:48.102Z,25.47
2022-12-18T12:23:27.701Z,22.90
2022-12-18T12:26:02.446Z,22.70
2022-12-18T12:28:52.704Z,24.90
2022-12-18T12:31:33.679Z,24.87
2022-12-18T12:34:08.744Z,22.30
2022-12-18T12:36:48.725Z,24.37
2022-12-18T12:39:23.648Z,24.57
2022-12-18T12:42:09.145Z,24.37
2022-12-18T12:44:41.371Z,23.93
2022-12-18T12:47:15.442Z,23.43
2022-12-18T12:49:50.427Z,25.03
2022-12-18T12:52:32.945Z,24.90
2022-12-18T12:55:11.543Z,23.70
2022-12-18T12:57:47.360Z,23.10
2022-12-18T13:00:16.680Z,23.03
2022-12-18T13:02:50.543Z,23.17
2022-12-18T13:05:25.811Z,25.30
2022-12-18T13:08:00.057Z,25.43
2022-12-18T13:10:37.778Z,24.53
2022-12-18T13:13:09.235Z,25.47
2022-12-18T13:15:46.822Z,23.83
2022-12-18T13:18:21.402Z,25.90
2022-12-18T13:20:55.402Z,25.40
2022-12-18T13:23:34.079Z,25.07
2022-12-18T13:26:35.521Z,27.17
2022-12-18T13:29:05.265Z,24.20
2022-12-18T13:32:10.038Z,23.03
2022-12-18T13:34:38.531Z,24.43
2022-12-18T13:37:55.736Z,24.00
2022-12-18T13:40:57.934Z,26.13
2022-12-18T13:43:43.908Z,26.33
2022-12-18T13:46:24.693Z,24.23
2022-12-18T13:48:56.935Z,24.10
2022-12-18T13:51:26.228Z,23.97
2022-12-18T13:53:59.970Z,25.70
2022-12-18T13:56:30.339Z,23.90
2022-12-18T13:59:18.548Z,24.33
2022-12-18T14:01:49.589Z,24.73
2022-12-18T14:04:33.042Z,21.87
2022-12-18T14:07:05.783Z,23.37
2022-12-18T14:09:38.172Z,24.97
2022-12-18T14:12:32.591Z,23.50
2022-12-18T14:15:03.553Z,22.40
2022-12-18T14:17:33.624Z,24.10
2022-12-18T14:20:02.832Z,24.80
2022-12-18T14:22:32.693Z,27.60
2022-12-18T14:25:17.149Z,26.57
2022-12-18T14:27:46.812Z,24.20
2022-12-18T14:30:33.984Z,23.70
2022-12-18T14:33:05.210Z,23.50
2022-12-18T14:35:33.687Z,24.77
2022-12-18T14:38:30.646Z,22.13
2022-12-18T14:41:04.089Z,22.77
2022-12-18T14:43:35.520Z,22.17
2022-12-18T14:46:07.232Z,23.27
2022-12-18T14:48:40.949Z,22.97
2022-12-18T14:51:18.061Z,22.93
2022-12-18T14:53:54.145Z,22.93
2022-12-18T14:56:24.704Z,23.63
2022-12-18T14:58:55.936Z,25.23
2022-12-18T15:01:28.876Z,25.00
2022-12-18T15:03:58.787Z,23.47
2022-12-18T15:06:33.068Z,25.57
2022-12-18T15:09:02.062Z,24.33
2022-12-18T15:11:37.417Z,26.13
2022-12-18T15:14:35.657Z,24.67
2022-12-18T15:17:08.373Z,23.20
2022-12-18T15:19:41.031Z,24.20
2022-12-18T15:22:21.281Z,23.33
2022-12-18T15:24:50.813Z,23.43
2022-12-18T15:27:30.267Z,21.70
2022-12-18T15:30:28.601Z,19.53
2022-12-18T15:33:27.562Z,20.53
2022-12-18T15:35:59.345Z,21.43
2022-12-18T15:38:27.925Z,20.23
2022-12-18T15:40:56.582Z,22.87
2022-12-18T15:43:38.438Z,23.77
2022-12-18T15:46:08.456Z,22.27
2022-12-18T15:48:41.333Z,23.40
2022-12-18T15:51:18.124Z,23.87
2022-12-18T15:53:47.121Z,22.43
2022-12-18T15:56:33.522Z,24.60
2022-12-18T15:59:02.334Z,21.63
2022-12-18T16:01:36.097Z,23.13
2022-12-18T16:04:12.682Z,25.37
2022-12-18T16:07:12.619Z,24.03
2022-12-18T16:09:31.483Z,26.30
2022-12-18T16:12:02.693Z,41.17
2022-12-18T16:14:32.647Z,26.10
2022-12-18T16:17:02.492Z,22.83
2022-12-18T16:19:34.584Z,23.83
2022-12-18T16:22:07.614Z,25.67
2022-12-18T16:24:37.270Z,23.27
2022-12-18T16:27:05.394Z,26.27
2022-12-18T16:29:33.971Z,24.13
2022-12-18T16:32:02.686Z,26.53
2022-12-18T16:34:35.810Z,25.40
2022-12-18T16:37:06.711Z,26.30
2022-12-18T16:39:35.665Z,25.87
2022-12-18T16:42:07.426Z,28.07
2022-12-18T16:44:36.511Z,26.53
2022-12-18T16:47:05.653Z,27.50
2022-12-18T16:49:37.586Z,25.63
2022-12-18T16:52:06.073Z,27.60
2022-12-18T16:54:35.215Z,28.37
2022-12-18T16:57:03.378Z,28.80
2022-12-18T16:59:31.415Z,29.07
2022-12-18T17:02:00.132Z,26.07
2022-12-18T17:04:28.291Z,24.00
2022-12-18T17:06:57.865Z,27.13
2022-12-18T17:09:26.197Z,26.67
2022-12-18T17:11:57.356Z,22.07
2022-12-18T17:14:26.414Z,24.20
2022-12-18T17:17:19.645Z,27.83
2022-12-18T17:19:43.536Z,26.33
2022-12-18T17:22:13.031Z,26.57
2022-12-18T17:24:41.045Z,25.53
2022-12-18T17:27:09.549Z,26.23
2022-12-18T17:29:42.484Z,26.10
2022-12-18T17:32:14.917Z,27.70
2022-12-18T17:34:42.915Z,28.80
2022-12-18T17:37:12.293Z,36.90
2022-12-18T17:39:40.887Z,33.73
2022-12-18T17:42:10.623Z,28.63
2022-12-18T17:44:43.478Z,24.00
2022-12-18T17:47:12.212Z,22.23
2022-12-18T17:49:40.604Z,22.83
2022-12-18T17:52:08.535Z,23.93
2022-12-18T17:54:39.760Z,25.43
2022-12-18T17:57:07.988Z,24.17
2022-12-18T17:59:36.068Z,26.43
2022-12-18T18:02:04.308Z,25.57
2022-12-18T18:04:32.948Z,25.73
2022-12-18T18:07:01.037Z,27.83
2022-12-18T18:09:29.344Z,26.73
2022-12-18T18:12:16.232Z,28.77
2022-12-18T18:14:44.513Z,29.27
2022-12-18T18:17:12.984Z,26.03
2022-12-18T18:19:42.095Z,23.70
2022-12-18T18:22:11.746Z,23.73
2022-12-18T18:24:40.119Z,25.83
2022-12-18T18:27:12.739Z,23.53
2022-12-18T18:29:41.101Z,22.13
2022-12-18T18:32:09.268Z,24.60
2022-12-18T18:34:37.837Z,25.37
2022-12-18T18:37:06.455Z,21.37
2022-12-18T18:39:34.621Z,21.33
2022-12-18T18:42:03.363Z,20.17
2022-12-18T18:44:33.531Z,25.53
2022-12-18T18:47:01.596Z,23.80
2022-12-18T18:49:31.875Z,20.17
2022-12-18T18:52:00.336Z,21.57
2022-12-18T18:54:28.491Z,21.43
2022-12-18T18:57:19.433Z,21.13
2022-12-18T18:59:47.603Z,20.03
2022-12-18T19:02:16.708Z,20.23
2022-12-18T19:04:46.715Z,20.27
2022-12-18T19:07:29.994Z,19.83
2022-12-18T19:10:05.082Z,20.20
2022-12-18T19:12:51.914Z,21.30
2022-12-18T19:15:21.597Z,29.50
2022-12-18T19:17:49.795Z,28.07
2022-12-18T19:20:18.350Z,25.00
2022-12-18T19:22:49.039Z,25.33
2022-12-18T19:25:29.732Z,23.67
2022-12-18T19:28:15.112Z,24.60
2022-12-18T19:30:57.302Z,21.63
2022-12-18T19:33:42.266Z,21.10
2022-12-18T19:36:12.965Z,20.83
2022-12-18T19:38:44.825Z,22.37
2022-12-18T19:41:14.706Z,22.23
2022-12-18T19:43:43.303Z,23.67
2022-12-18T19:46:15.451Z,24.70
2022-12-18T19:48:45.101Z,25.23
2022-12-18T19:51:16.907Z,23.57
2022-12-18T19:53:45.002Z,25.27
2022-12-18T19:56:14.852Z,22.83
2022-12-18T19:58:44.092Z,21.00
2022-12-18T20:01:16.472Z,24.43
2022-12-18T20:03:51.635Z,24.13
2022-12-18T20:06:25.331Z,23.93
2022-12-18T20:08:55.873Z,22.63
2022-12-18T20:11:29.587Z,22.83
2022-12-18T20:13:57.983Z,21.93
2022-12-18T20:16:30.846Z,19.90
2022-12-18T20:18:59.884Z,19.30
2022-12-18T20:21:28.343Z,19.73
2022-12-18T20:23:56.850Z,19.67
2022-12-18T20:26:25.344Z,19.67
2022-12-18T20:28:55.153Z,21.40
2022-12-18T20:31:23.459Z,21.93
2022-12-18T20:33:54.463Z,20.53
2022-12-18T20:36:24.659Z,18.60
2022-12-18T20:38:57.190Z,18.87
2022-12-18T20:41:27.724Z,20.47
2022-12-18T20:44:06.275Z,21.23
2022-12-18T20:46:39.131Z,19.97
2022-12-18T20:49:08.520Z,19.23
2022-12-18T20:51:37.194Z,19.63
2022-12-18T20:54:09.121Z,18.43
2022-12-18T20:56:39.736Z,17.70
2022-12-18T20:59:07.959Z,19.77
2022-12-18T21:01:36.241Z,16.70
2022-12-18T21:04:05.997Z,19.63
2022-12-18T21:06:35.414Z,16.67
2022-12-18T21:09:03.621Z,16.57
2022-12-18T21:11:50.710Z,17.00
2022-12-18T21:14:21.218Z,16.40
2022-12-18T21:16:51.797Z,16.43
2022-12-18T21:19:21.305Z,17.17
2022-12-18T21:21:51.543Z,18.83
2022-12-18T21:24:20.077Z,18.10
2022-12-18T21:26:50.077Z,18.87
2022-12-18T21:29:20.553Z,16.43
2022-12-18T21:31:49.185Z,17.47
2022-12-18T21:34:18.553Z,16.83
2022-12-18T21:36:46.844Z,19.13
2022-12-18T21:39:17.633Z,20.20
2022-12-18T21:42:03.230Z,18.10
2022-12-18T21:44:40.171Z,16.30
2022-12-18T21:47:16.879Z,18.27
2022-12-18T21:49:51.793Z,19.20
2022-12-18T21:52:20.333Z,17.90
2022-12-18T21:54:53.914Z,18.17
2022-12-18T21:57:22.348Z,19.80
2022-12-18T21:59:50.563Z,17.27
2022-12-18T22:02:21.162Z,17.53
2022-12-18T22:04:49.692Z,17.80
2022-12-18T22:07:19.919Z,20.67
2022-12-18T22:09:48.414Z,21.73
2022-12-18T22:12:35.328Z,18.57
2022-12-18T22:15:05.641Z,17.33
2022-12-18T22:17:33.912Z,19.30
2022-12-18T22:20:01.935Z,18.83
2022-12-18T22:22:30.776Z,20.27
2022-12-18T22:24:58.928Z,18.20
2022-12-18T22:27:28.374Z,17.77
2022-12-18T22:30:04.166Z,17.43
2022-12-18T22:32:32.865Z,18.47
2022-12-18T22:35:06.255Z,17.13
2022-12-18T22:37:37.007Z,17.93
2022-12-18T22:40:07.406Z,16.90
2022-12-18T22:42:37.101Z,19.23
2022-12-18T22:45:05.863Z,18.43
2022-12-18T22:47:34.376Z,19.30
2022-12-18T22:50:02.556Z,17.00
2022-12-18T22:52:30.696Z,16.90
2022-12-18T22:54:58.731Z,15.80
2022-12-18T22:57:27.405Z,15.00
2022-12-18T22:59:56.849Z,16.23
2022-12-18T23:02:25.031Z,15.83
2022-12-18T23:04:53.154Z,15.53
2022-12-18T23:07:21.509Z,15.60
2022-12-18T23:09:58.926Z,14.87
2022-12-18T23:12:29.547Z,16.40
2022-12-18T23:14:59.316Z,15.40
2022-12-18T23:17:27.356Z,14.80
2022-12-18T23:19:55.316Z,17.07
2022-12-18T23:22:23.445Z,17.10
2022-12-18T23:24:51.605Z,17.87
2022-12-18T23:27:19.713Z,17.90
2022-12-18T23:29:47.765Z,17.03
2022-12-18T23:32:18.159Z,15.73
2022-12-18T23:34:46.158Z,15.63
2022-12-18T23:37:24.931Z,14.17
2022-12-18T23:40:02.245Z,15.20
2022-12-18T23:42:30.334Z,17.63
2022-12-18T23:44:58.369Z,17.50
2022-12-18T23:47:29.348Z,16.73
2022-12-18T23:49:57.359Z,18.03
2022-12-18T23:52:26.111Z,17.33
2022-12-18T23:54:57.129Z,16.37
2022-12-18T23:57:25.267Z,15.23
2022-12-18T23:59:54.955Z,14.77
